Hopkins, Barry
CanadaManBorn 19532002 – 2026Runner id 31004
Events
191
2002 – 2026
Best pace
10.347
km/h · 2008
Best finish
3rd
of 24 · 2014
Distance raced
11,726
km · splits not double-counted
Pace over time
km/h · higher is faster
Pace over time: 191 races from 2002 to 2026, ranging from 1.98 to 12.02 kilometres per hour, where higher is faster. A second, age-graded series is drawn above it; the gap between the two is the age credit.
- Actual pace
- Age-graded pace
Results
| Date | Event | Distance | Result | Pace km/h | Placing |
|---|---|---|---|---|---|
| 2002-06-26 | 50km | 9:44:31 h | 5.132 | 24/35 | |
| 2002-10-12 | 50mi | 10:56:58 h | 7.349 | 73/84 | |
| 2004-05-29 | 50km | 5:13:20 h | 9.574 | 11/53 | |
| 2004-09-11 | 100km | 18:24:29 h | 5.432 | 15/23 | |
| 2004-10-09 | 50mi | 9:22:40 h | 8.581 | 28/53 | |
| 2005-10-08 | 50km | 5:58:10 h | 8.376 | 10/13 | |
| 2006-06-16 | 50mi | 14:19:53 h | 5.615 | 83/95 | |
| 2006-09-09 | 100km | 18:36:00 h | 5.376 | 11/29 | |
| 2006-10-14 | 50mi | 10:54:18 h | 7.379 | 54/69 | |
| 2007-03-17 | 50km | 7:06:42 h | 7.031 | 58/147 | |
| 2007-05-19 | 50km | 8:31:29 h | 5.865 | 32/61 | |
| 2007-06-02 | 50km | 5:57:10 h | 8.399 | 10/29 | |
| 2007-06-23 | 50km | 10:03:00 h | 4.975 | 27/35 | |
| 2007-07-21 | 100mi | 22:57:53 h | 7.008 | 45/142 | |
| 2007-08-25 | 50mi | 9:38:00 h | 8.353 | 10/42 | |
| 2007-09-02 | Walk in the Park 54KCanada | 54km | 7:54:26 h | 6.829 | 19/22 |
| 2007-09-14 | 100mi | 32:19:00 h | 4.980 | 23/30 | |
| 2007-10-06 | Baker Lake 50K Ultra Trail RunUnited States | 50km | 7:17:24 h | 6.859 | 58/77 |
| 2007-10-13 | 50mi | 8:15:02 h | 9.753 | 15/85 | |
| 2008-02-24 | Cedar River Yours TrulyUnited States | 50km | 5:48:00 h | 8.621 | 10/15 |
| 2008-03-01 | 50km | 5:41:21 h | 8.789 | 17/31 | |
| 2008-03-15 | Chuckanut 50KUnited States | 50km | 6:50:45 h | 7.304 | 215/294 |
| 2008-04-13 | 50mi | 9:01:12 h | 8.921 | 34/50 | |
| 2008-04-26 | Capitol Peak 55KUnited States | 55km | 7:32:35 h | 7.291 | 36/46 |
| 2008-05-03 | 50km | 4:49:57 h | 10.347 | 13/25 | |
| 2008-05-10 | 50mi | 12:48:10 h | 6.285 | 30/35 | |
| 2008-05-17 | Watershed Preserve 12 Hr Trail RaceUnited States | 12h | 51.901 km | 4.325 | 48/53 |
| 2008-06-20 | 50mi | 12:43:42 h | 6.322 | 61/106 | |
| 2008-08-02 | 50mi | 13:34:10 h | 5.930 | 18/28 | |
| 2008-08-09 | 50mi | 10:58:38 h | 7.330 | 39/57 | |
| 2008-08-31 | Walk in the Park 54KCanada | 54km | 8:10:37 h | 6.604 | 18/21 |
| 2008-09-06 | 50km | 6:06:39 h | 8.182 | 19/36 | |
| 2008-09-13 | Cle Elum Ridge 50kUnited States | 50km | 7:08:00 h | 7.009 | 51/80 |
| 2008-10-11 | 50mi | 10:18:43 h | 7.803 | 88/155 | |
| 2008-10-19 | 50km | 6:14:00 h | 8.021 | 8/19 | |
| 2008-11-01 | 100mi | 30:56:58 h | 5.200 | 17/25 | |
| 2009-03-21 | 24h | 50.000 km | 2.083 | 39/49 | |
| 2009-04-18 | Diez Vista 50K Trail RunCanada | 50km | 7:19:59 h | 6.818 | 80/116 |
| 2009-04-25 | 55km | 7:49:17 h | 7.032 | 32/43 | |
| 2009-05-02 | 50km | 5:15:04 h | 9.522 | 13/19 | |
| 2009-06-06 | 50km | 6:11:15 h | 8.081 | 29/46 | |
| 2009-06-27 | 24h | 47.475 km | 1.978 | 19/19 | |
| 2009-07-25 | 50mi | 11:42:10 h | 6.876 | 123/166 | |
| 2009-08-22 | 50mi | 11:37:24 h | 6.923 | 30/58 | |
| 2009-09-19 | 50km | 8:36:36 h | 5.807 | 67/70 | |
| 2009-10-03 | Baker Lake 50K Ultra Trail RunUnited States | 50km | 8:19:00 h | 6.012 | 57/65 |
| 2010-01-23 | Pigtails Run 50KUnited States | 50km | 6:08:31 h | 8.141 | 65/80 |
| 2010-03-07 | Lord Hill Trail RunUnited States | 50km | 6:56:20 h | 7.206 | 17/21 |
| 2010-03-13 | 50km | 7:04:41 h | 7.064 | 50/54 | |
| 2010-03-20 | 24h | 50.000 km | 2.083 | 64/73 | |
| 2010-04-18 | Spokane River Run 50KUnited States | 50km | 5:43:27 h | 8.735 | 41/70 |
| 2010-04-25 | 55km | 7:34:08 h | 7.267 | 32/67 | |
| 2010-05-15 | 50km | 7:09:17 h | 6.988 | 25/72 | |
| 2010-06-20 | 50km | 6:17:05 h | 7.956 | 25/32 | |
| 2010-06-26 | 50km | 6:25:55 h | 7.774 | 32/46 | |
| 2010-08-14 | 50mi | 13:00:46 h | 6.184 | 37/59 | |
| 2010-08-21 | Squak Mountain 50 Km Trail RunUnited States | 50km | 6:19:56 h | 7.896 | 3/9 |
| 2010-09-05 | Walk in the Park 54KCanada | 54km | 7:37:07 h | 7.088 | 14/25 |
| 2010-09-18 | 50km | 7:20:12 h | 6.815 | 56/97 | |
| 2010-10-02 | Baker Lake 50K Ultra Trail RunUnited States | 50km | 6:20:00 h | 7.895 | 49/115 |
| 2010-10-16 | 50km | 6:00:17 h | 8.327 | 51/97 | |
| 2010-10-30 | 12h | 46.590 km | 3.883 | 24/25 | |
| 2010-11-27 | Ghost of Seattle MarathonUnited States | 50km | 5:05:29 h | 9.821 | 11/16 |
| 2011-02-05 | 50km | 8:27:28 h | 5.912 | 108/129 | |
| 2011-02-19 | 50km | 5:45:00 h | 8.696 | 21/25 | |
| 2011-03-11 | 50km | 7:20:58 h | 6.803 | 86/125 | |
| 2011-04-09 | 50km | 7:57:10 h | 6.287 | 79/99 | |
| 2011-04-17 | Spokane River Run 50KUnited States | 50km | 6:02:10 h | 8.283 | 45/62 |
| 2011-04-30 | 55km | 7:19:19 h | 7.512 | 28/49 | |
| 2011-05-21 | 50km | 7:39:58 h | 6.522 | 35/65 | |
| 2011-06-25 | 50km | 10:16:50 h | 4.864 | 39/52 | |
| 2011-08-13 | 50mi | 12:55:19 h | 6.227 | 40/61 | |
| 2011-08-20 | Summit Ridge 50 Km Trail RunUnited States | 50km | 7:14:02 h | 6.912 | 9/18 |
| 2011-09-04 | 54km | 7:36:57 h | 7.090 | 9/15 | |
| 2011-09-17 | 50km | 8:00:24 h | 6.245 | 44/58 | |
| 2011-10-08 | 50km | 7:01:08 h | 7.124 | 18/35 | |
| 2011-10-23 | Fort Steilacoom Trail Run 50 KmUnited States | 50km | 5:34:05 h | 8.980 | 16/36 |
| 2012-04-28 | 55km | 7:04:31 h | 7.774 | 20/66 | |
| 2012-05-26 | 50km | 5:42:32 h | 8.758 | 23/85 | |
| 2012-06-16 | 50mi | 10:49:58 h | 7.428 | 13/17 | |
| 2012-08-04 | 50mi | 15:36:35 h | 5.155 | 37/47 | |
| 2012-08-18 | 50mi | 12:55:32 h | 6.225 | 47/84 | |
| 2012-08-25 | 50mi | 9:33:00 h | 8.426 | 13/46 | |
| 2012-09-02 | 54km | 7:49:07 h | 6.907 | 12/16 | |
| 2012-09-29 | 6h | 48.000 km | 8.000 | 5/6 | |
| 2012-10-19 | 50mi | 9:28:30 h | 8.493 | 14/46 | |
| 2012-12-08 | 50mi | 12:13:50 h | 6.579 | 29/41 | |
| 2013-06-29 | 50mi | 12:41:09 h | 6.343 | 16/34 | |
| 2013-07-06 | 50km | 7:54:11 h | 6.327 | 9/25 | |
| 2013-10-26 | 100km | 14:54:19 h | 6.709 | 16/43 | |
| 2013-12-07 | 50mi | 13:27:16 h | 5.981 | 29/29 | |
| 2014-01-11 | 50km | 6:55:43 h | 7.216 | 43/56 | |
| 2014-03-22 | 50km | 6:18:00 h | 7.937 | 3/24 | |
| 2014-04-26 | Leona Divide 50 km RunUnited States | 50km | 7:45:06 h | 6.450 | 97/170 |
| 2014-05-17 | 50mi | 12:44:44 h | 6.313 | 60/66 | |
| 2014-05-24 | Blackfoot Ultra 50 KmCanada | 50km | 6:35:00 h | 7.595 | 66/108 |
| 2014-06-01 | 50km | 5:18:05 h | 9.431 | 231/410 | |
| 2014-06-07 | 100km | 15:15:05 h | 6.557 | 31/60 | |
| 2014-08-16 | 60km | 11:02:17 h | 5.436 | 6/20 | |
| 2014-08-31 | 54km | 7:45:06 h | 6.966 | 7/18 | |
| 2014-09-05 | 100km | 18:16:17 h | 5.473 | 34/61 | |
| 2014-09-28 | 50mi | 11:04:24 h | 7.267 | 33/71 | |
| 2014-10-17 | 50mi | 9:29:16 h | 8.481 | 7/34 | |
| 2014-11-01 | 100km | 14:01:05 h | 7.134 | 22/103 | |
| 2014-12-06 | 50km | 6:26:29 h | 7.762 | 41/66 | |
| 2015-01-10 | 50km | 6:35:40 h | 7.582 | 31/50 | |
| 2015-01-24 | 52km | 6:48:41 h | 7.634 | 36/75 | |
| 2015-04-25 | 55km | 8:07:04 h | 6.775 | 10/17 | |
| 2015-05-16 | Silver State 50 MileUnited States | 50mi | 13:14:35 h | 6.076 | 76/82 |
| 2015-05-30 | Blackfoot Ultra 50 KmCanada | 50km | 5:55:22 h | 8.442 | 57/143 |
| 2015-05-31 | 50km | 5:58:35 h | 8.366 | 143/168 | |
| 2015-06-27 | 50km | 7:15:13 h | 6.893 | 36/49 | |
| 2015-07-05 | 50km | 5:56:20 h | 8.419 | 3/14 | |
| 2015-09-06 | 54km | 8:00:20 h | 6.745 | 10/16 | |
| 2015-09-23 | 50mi | 13:01:43 h | 6.176 | 24/29 | |
| 2015-12-05 | 50mi | 13:13:38 h | 6.083 | 24/33 | |
| 2016-04-16 | 57km | 7:49:44 h | 7.281 | 14/26 | |
| 2016-04-30 | 50mi | 12:58:31 h | 6.202 | 35/53 | |
| 2016-05-28 | 50km | 6:07:00 h | 8.174 | 54/152 | |
| 2016-08-13 | 60km | 10:53:00 h | 5.513 | 28/51 | |
| 2016-09-04 | 51km | 7:23:03 h | 6.907 | 18/24 | |
| 2016-09-16 | 85km | 15:09:21 h | 5.608 | 48/62 | |
| 2016-09-17 | 60km | 10:33:37 h | 5.682 | 64/92 | |
| 2016-11-19 | 50mi | 11:35:58 h | 6.937 | 71/86 | |
| 2016-12-03 | 50km | 6:38:56 h | 7.520 | 44/90 | |
| 2016-12-28 | 24h | 60.821 km | 2.534 | 106/139 | |
| 2017-02-11 | 50km | 7:07:29 h | 7.018 | 97/191 | |
| 2017-04-23 | 50km | 6:34:05 h | 7.613 | 45/53 | |
| 2017-05-06 | 50km | 6:46:03 h | 7.388 | 35/76 | |
| 2017-05-28 | 50km | 5:21:27 h | 9.333 | 70/147 | |
| 2017-07-08 | 56km | 9:25:10 h | 5.945 | 51/66 | |
| 2017-07-29 | 50km | 11:40:55 h | 4.280 | 100/108 | |
| 2017-08-12 | 60km | 12:11:46 h | 4.920 | 38/51 | |
| 2017-09-22 | 85km | 15:38:17 h | 5.435 | 97/123 | |
| 2017-09-23 | 60km | 11:17:28 h | 5.314 | 150/189 | |
| 2017-11-18 | 50km | 6:12:09 h | 8.061 | 136/228 | |
| 2017-12-02 | 50km | 6:51:39 h | 7.288 | 73/138 | |
| 2018-03-03 | 50mi | 13:59:59 h | 5.748 | 34/40 | |
| 2018-04-22 | 50km | 6:00:23 h | 8.324 | 45/57 | |
| 2018-05-05 | 50km | 8:46:23 h | 5.699 | 65/92 | |
| 2018-05-26 | Blackfoot Ultra 50 KmCanada | 50km | 6:58:30 h | 7.168 | 98/142 |
| 2018-06-02 | 50mi | 13:29:55 h | 5.961 | 67/74 | |
| 2018-07-28 | 50km | 11:35:04 h | 4.316 | 113/136 | |
| 2018-09-29 | 60km | 8:33:07 h | 7.016 | 61/86 | |
| 2018-11-03 | 41.5mi | 11:10:42 h | 5.975 | 19/27 | |
| 2018-11-17 | 50km | 5:53:00 h | 8.499 | 145/309 | |
| 2018-12-01 | 50km | 6:32:32 h | 7.643 | 63/154 | |
| 2018-12-31 | 24h | 55.752 km | 2.323 | 149/173 | |
| 2019-01-13 | 12h | 48.280 km | 4.023 | 10/10 | |
| 2019-01-26 | 50km | 8:31:01 h | 5.871 | 60/77 | |
| 2019-02-09 | 50km | 6:09:09 h | 8.127 | 45/159 | |
| 2019-02-16 | 6h | 49.889 km | 8.315 | 9/19 | |
| 2019-03-09 | 50km | 7:47:53 h | 6.412 | 56/82 | |
| 2019-04-06 | Hells Hills 50km RaceUnited States | 50km | 7:00:44 h | 7.130 | 18/45 |
| 2019-05-25 | 50km | 6:12:25 h | 8.055 | 50/124 | |
| 2019-06-15 | 12h | 50.000 km | 4.167 | 9/10 | |
| 2019-07-06 | 50km | 8:55:00 h | 5.607 | 41/47 | |
| 2019-09-01 | 51km | 8:26:13 h | 6.045 | 19/23 | |
| 2019-09-21 | Snow Mountain Ranch 50 km Trail RaceUnited States | 50km | 6:56:14 h | 7.207 | 20/33 |
| 2019-09-28 | 60km | 9:14:11 h | 6.496 | 72/108 | |
| 2019-10-26 | 50km | 6:12:24 h | 8.056 | 24/97 | |
| 2019-11-24 | 50km | 7:00:49 h | 7.129 | 18/44 | |
| 2021-08-14 | 60km | 12:37:33 h | 4.752 | 57/71 | |
| 2021-09-10 | 100km | 18:41:53 h | 5.348 | 71/102 | |
| 2021-10-01 | 6h | 45.769 km | 7.628 | 7/11 | |
| 2022-05-21 | 55km | 10:31:17 h | 5.227 | 20/20 | |
| 2022-06-18 | 12h | 104.607 km | 8.717 | 16/23 | |
| 2022-07-02 | Bob Marshall Trail 50KUnited States | 50km | 6:55:05 h | 7.227 | 15/18 |
| 2022-07-09 | Sinister 7 Ultra 50-KmCanada | 50km | 9:51:36 h | 5.071 | 104/181 |
| 2022-07-23 | 50km | 9:01:55 h | 5.536 | 39/59 | |
| 2022-10-01 | 50km | 7:58:24 h | 6.271 | 104/125 | |
| 2022-10-14 | 50mi | 11:22:11 h | 7.077 | 11/27 | |
| 2023-09-23 | 50km | 7:04:10 h | 7.073 | 20/39 | |
| 2023-10-07 | 50km | 7:54:35 h | 6.321 | 92/123 | |
| 2023-10-20 | 50mi | 11:21:39 h | 7.083 | 13/30 | |
| 2024-10-05 | 50km | 8:39:54 h | 5.770 | 124/129 | |
| 2024-10-12 | 50km | 8:09:00 h | 6.135 | 17/24 | |
| 2025-04-27 | 50km | 7:18:05 h | 6.848 | 46/55 | |
| 2025-05-24 | 8h | 49.728 km | 6.216 | 9/9 | |
| 2025-08-02 | 50km | 9:07:20 h | 5.481 | 40/62 | |
| 2025-08-16 | 50km | 9:41:37 h | 5.158 | 66/76 | |
| 2025-09-06 | 62km | 13:27:17 h | 4.608 | 86/93 | |
| 2025-09-20 | 50km | 7:27:24 h | 6.705 | 39/80 | |
| 2025-10-04 | 50km | 6:37:45 h | 7.542 | 39/106 | |
| 2025-10-17 | 50mi | 11:51:12 h | 6.789 | 16/37 | |
| 2026-02-14 | Tarawera 50 km UltramarathonNew Zealand | 52km | 8:13:48 h | 6.318 | 1102/1739 |
| 2026-03-28 | 55km | 8:56:54 h | 6.146 | 71/84 | |
| 2026-04-19 | 50km | 7:15:06 h | 6.895 | 84/100 | |
| 2026-05-23 | 12h | 91.298 km | 7.608 | 17/20 | |
| 2026-06-06 | 50km | 9:31:30 h | 5.249 | 67/77 | |
| 2026-08-15 | 50km | 10:32:52 h | 4.740 | 77/82 |